Time;durP1;ratioP1;P1;durP2;ratioP2;P2;SDS_P1;SDS_P2;PMS_P1;PMS_P2;Temp;Humidity;BMP_temperature;BMP_pressure;BME280_temperature;BME280_humidity;BME280_pressure;Samples;Min_cycle;Max_cycle;Signal;HPM_P1;HPM_P2
2021/08/08 05:44:30;;;;;;;0.20;0.20;;;12.40;99.90;;;;;;6201345;22;20388;-96
2021/08/08 06:08:30;;;;;;;0.17;0.17;;;12.60;99.90;;;;;;6148121;23;20381;-96
2021/08/08 06:16:40;;;;;;;0.22;0.22;;;12.70;99.90;;;;;;6184276;22;20403;-96
2021/08/08 06:43:40;;;;;;;0.10;0.10;;;12.80;99.90;;;;;;6159234;22;20384;-96
2021/08/08 07:01:20;;;;;;;0.20;0.20;;;12.80;99.90;;;;;;6202716;23;20399;-96
2021/08/08 07:04:02;;;;;;;0.10;0.10;;;12.80;99.90;;;;;;6188826;23;20427;-96
2021/08/08 07:06:31;;;;;;;0.10;0.10;;;12.80;99.90;;;;;;6177393;23;20418;-94
2021/08/08 07:08:58;;;;;;;0.10;0.10;;;12.80;99.90;;;;;;6190401;23;20434;-95
2021/08/08 07:11:26;;;;;;;0.10;0.10;;;12.80;99.90;;;;;;6190143;23;20394;-95
2021/08/08 07:20:04;;;;;;;0.20;0.20;;;12.70;99.90;;;;;;6176924;23;21657;-96
2021/08/08 07:25:24;;;;;;;0.10;0.10;;;12.70;99.90;;;;;;6203810;22;20384;-96
2021/08/08 09:18:58;;;;;;;0.10;0.10;;;14.30;99.90;;;;;;6202985;22;20890;-94
2021/08/08 09:21:26;;;;;;;0.20;0.20;;;14.80;99.90;;;;;;6178892;22;20413;-95
2021/08/08 09:23:59;;;;;;;0.40;0.30;;;15.10;99.90;;;;;;6193651;23;20390;-95
2021/08/08 09:26:34;;;;;;;0.20;0.20;;;15.20;99.90;;;;;;6192756;23;20372;-95
2021/08/08 09:29:11;;;;;;;0.10;0.10;;;15.50;99.90;;;;;;6191516;23;20383;-93
2021/08/08 09:31:49;;;;;;;0.10;0.10;;;15.80;99.90;;;;;;6194927;23;20368;-88
2021/08/08 09:34:34;;;;;;;0.45;0.40;;;16.00;99.90;;;;;;6191263;23;20391;-91
2021/08/08 09:37:08;;;;;;;0.10;0.10;;;15.90;99.90;;;;;;6217750;23;20887;-93
2021/08/08 09:39:42;;;;;;;0.10;0.10;;;15.80;99.90;;;;;;6191240;23;20403;-94
2021/08/08 09:42:26;;;;;;;0.20;0.20;;;15.90;99.90;;;;;;6194676;23;20364;-95
2021/08/08 09:44:57;;;;;;;0.10;0.10;;;16.00;99.90;;;;;;6191092;23;20427;-93
2021/08/08 09:47:36;;;;;;;0.10;0.10;;;16.00;99.90;;;;;;6191405;23;20368;-93
2021/08/08 09:50:06;;;;;;;0.13;0.13;;;16.20;99.90;;;;;;6190675;23;20387;-94
2021/08/08 09:52:34;;;;;;;0.10;0.10;;;16.40;99.90;;;;;;6190752;23;20391;-91
2021/08/08 09:55:16;;;;;;;0.10;0.10;;;16.50;99.90;;;;;;6190817;23;20387;-92
2021/08/08 09:57:43;;;;;;;0.70;0.40;;;16.70;99.90;;;;;;6190707;23;20383;-94
2021/08/08 10:00:24;;;;;;;0.10;0.10;;;16.80;99.90;;;;;;6190716;23;20400;-90
2021/08/08 10:02:51;;;;;;;0.10;0.10;;;16.90;99.90;;;;;;6191240;23;20391;-92
2021/08/08 10:05:19;;;;;;;0.10;0.10;;;17.00;99.90;;;;;;6190281;23;20387;-93
2021/08/08 10:07:47;;;;;;;0.10;0.10;;;17.10;99.90;;;;;;6190488;23;20407;-92
2021/08/08 10:10:16;;;;;;;0.10;0.10;;;17.10;99.90;;;;;;6190693;23;20417;-92
2021/08/08 10:12:43;;;;;;;0.10;0.10;;;17.10;99.90;;;;;;6190935;23;20398;-93
2021/08/08 10:15:11;;;;;;;0.10;0.10;;;17.30;99.90;;;;;;6190611;23;20395;-94
2021/08/08 10:17:42;;;;;;;0.10;0.10;;;17.50;99.90;;;;;;6193650;23;20371;-96
2021/08/08 10:20:10;;;;;;;4.60;0.60;;;17.70;99.90;;;;;;6168888;23;20399;-94
2021/08/08 10:22:41;;;;;;;0.10;0.10;;;17.80;99.90;;;;;;6193230;23;20388;-94
2021/08/08 10:25:09;;;;;;;0.10;0.10;;;18.10;99.90;;;;;;6191954;23;20367;-93
2021/08/08 10:27:38;;;;;;;0.10;0.10;;;18.10;99.90;;;;;;6191605;23;20383;-96
2021/08/08 10:30:06;;;;;;;0.10;0.10;;;17.90;99.90;;;;;;6194960;23;20379;-94
2021/08/08 10:32:33;;;;;;;0.20;0.20;;;17.90;99.90;;;;;;6194556;23;20390;-94
2021/08/08 10:35:16;;;;;;;0.40;0.40;;;17.90;99.90;;;;;;6191785;23;20387;-93
2021/08/08 10:37:45;;;;;;;0.10;0.10;;;17.80;99.90;;;;;;6190877;23;20371;-93
2021/08/08 10:40:24;;;;;;;0.10;0.10;;;17.70;99.90;;;;;;6194038;23;20400;-96
2021/08/08 10:42:51;;;;;;;0.40;0.30;;;17.60;99.90;;;;;;6193682;23;20415;-96
2021/08/08 10:45:29;;;;;;;0.10;0.10;;;17.40;99.90;;;;;;6193095;23;20557;-92
2021/08/08 10:48:01;;;;;;;0.10;0.10;;;17.30;99.90;;;;;;6191982;23;20391;-93
2021/08/08 10:50:41;;;;;;;0.10;0.10;;;17.20;99.90;;;;;;6194534;23;20483;-96
2021/08/08 10:53:21;;;;;;;0.20;0.20;;;17.10;99.90;;;;;;6194580;23;20447;-95
2021/08/08 10:56:02;;;;;;;0.10;0.10;;;17.10;99.90;;;;;;6197550;23;20399;-95
2021/08/08 10:58:48;;;;;;;1.45;0.25;;;17.40;99.90;;;;;;6198278;23;20392;-94
2021/08/08 11:01:22;;;;;;;0.20;0.20;;;17.50;99.90;;;;;;6196873;23;20844;-95
2021/08/08 11:04:09;;;;;;;0.10;0.10;;;17.50;99.90;;;;;;6200436;23;20380;-94
2021/08/08 11:06:37;;;;;;;0.10;0.10;;;17.50;99.90;;;;;;6194926;23;20395;-95
2021/08/08 11:09:05;;;;;;;0.10;0.10;;;17.50;99.90;;;;;;6192265;23;20388;-94
2021/08/08 11:11:38;;;;;;;0.30;0.30;;;17.50;99.90;;;;;;6191474;23;20384;-93
2021/08/08 11:14:10;;;;;;;0.10;0.10;;;17.70;99.90;;;;;;6194976;23;20388;-95
2021/08/08 11:17:10;;;;;;;0.10;0.10;;;17.90;99.90;;;;;;6194455;23;20388;-95
2021/08/08 11:19:55;;;;;;;0.10;0.10;;;18.10;99.90;;;;;;6110554;23;20412;-95
2021/08/08 11:22:49;;;;;;;1.30;0.30;;;18.30;99.90;;;;;;6103686;23;20401;-96
2021/08/08 11:25:20;;;;;;;0.20;0.20;;;18.50;99.90;;;;;;6111771;23;20440;-95
2021/08/08 11:27:54;;;;;;;0.10;0.10;;;18.80;99.90;;;;;;6104027;23;20397;-96
2021/08/08 11:30:27;;;;;;;0.38;0.38;;;18.90;99.90;;;;;;6110076;23;20398;-96
2021/08/08 11:32:54;;;;;;;0.10;0.10;;;19.00;99.90;;;;;;6102740;23;20412;-95
2021/08/08 11:35:27;;;;;;;0.10;0.10;;;19.00;99.90;;;;;;6100861;23;20397;-94
2021/08/08 11:37:58;;;;;;;0.10;0.10;;;18.90;99.90;;;;;;6102573;23;20515;-96
2021/08/08 11:40:26;;;;;;;0.10;0.10;;;18.80;99.90;;;;;;6102395;23;20409;-96
2021/08/08 11:43:05;;;;;;;0.20;0.20;;;18.90;99.90;;;;;;6100343;23;20399;-96
2021/08/08 11:45:36;;;;;;;0.10;0.10;;;19.10;99.90;;;;;;6101283;23;20393;-95
2021/08/08 11:48:06;;;;;;;0.10;0.10;;;19.50;99.90;;;;;;6101499;23;20399;-94
2021/08/08 11:50:34;;;;;;;0.10;0.10;;;19.90;99.90;;;;;;6143624;23;20720;-95
2021/08/08 11:53:07;;;;;;;0.20;0.20;;;20.10;99.90;;;;;;6192827;23;20388;-96
2021/08/08 11:55:38;;;;;;;0.10;0.10;;;20.00;99.90;;;;;;6166328;23;20395;-95
2021/08/08 12:01:23;;;;;;;0.10;0.10;;;20.10;99.90;;;;;;6210104;22;20411;-94
2021/08/08 12:03:51;;;;;;;0.10;0.10;;;19.90;99.90;;;;;;6201801;23;20382;-96
2021/08/08 12:06:23;;;;;;;0.10;0.10;;;19.80;99.90;;;;;;6221967;23;20473;-95
2021/08/08 12:08:52;;;;;;;0.20;0.20;;;19.70;99.90;;;;;;6221167;23;20382;-96
2021/08/08 12:11:23;;;;;;;0.10;0.10;;;19.60;99.90;;;;;;6223362;23;20477;-96
2021/08/08 12:14:01;;;;;;;0.10;0.10;;;19.70;99.90;;;;;;6221231;23;20390;-96
2021/08/08 12:16:38;;;;;;;0.10;0.10;;;20.00;99.90;;;;;;6223303;23;20393;-96
2021/08/08 13:11:25;;;;;;;0.20;0.20;;;20.00;99.90;;;;;;6159408;23;20407;31
2021/08/08 13:18:34;;;;;;;0.20;0.20;;;19.80;99.90;;;;;;6202865;23;20416;-96
2021/08/08 19:57:26;;;;;;;0.13;0.13;;;13.40;99.90;;;;;;6240947;22;20398;-96
